createdAt,value
2022-08-11T00:00:00.900Z,16.70
2022-08-11T00:02:35.649Z,16.80
2022-08-11T00:05:08.168Z,16.80
2022-08-11T00:07:43.172Z,16.70
2022-08-11T00:10:13.494Z,16.70
2022-08-11T00:12:43.792Z,16.70
2022-08-11T00:15:13.013Z,16.60
2022-08-11T00:17:43.758Z,16.50
2022-08-11T00:20:17.002Z,16.50
2022-08-11T00:22:48.192Z,16.60
2022-08-11T00:25:18.761Z,16.40
2022-08-11T00:27:48.651Z,16.30
2022-08-11T00:30:17.595Z,16.20
2022-08-11T00:32:56.397Z,16.20
2022-08-11T00:35:51.317Z,16.30
2022-08-11T00:38:18.866Z,16.30
2022-08-11T00:40:56.271Z,16.20
2022-08-11T00:43:38.291Z,16.20
2022-08-11T00:46:17.418Z,16.10
2022-08-11T00:49:07.067Z,16.00
2022-08-11T00:52:03.875Z,15.90
2022-08-11T00:55:01.727Z,16.10
2022-08-11T00:58:21.754Z,16.20
2022-08-11T01:01:10.492Z,16.00
2022-08-11T01:04:15.211Z,15.90
2022-08-11T01:07:06.619Z,16.10
2022-08-11T01:10:05.134Z,16.00
2022-08-11T01:12:47.710Z,16.10
2022-08-11T01:16:02.866Z,15.90
2022-08-11T01:19:25.239Z,15.70
2022-08-11T01:22:51.769Z,15.60
2022-08-11T01:25:57.587Z,15.50
2022-08-11T01:29:11.817Z,15.30
2022-08-11T01:32:02.254Z,15.30
2022-08-11T01:35:08.884Z,15.30
2022-08-11T01:38:22.377Z,15.40
2022-08-11T01:41:21.964Z,15.30
2022-08-11T01:44:36.581Z,15.30
2022-08-11T01:47:36.796Z,15.30
2022-08-11T01:50:18.879Z,15.20
2022-08-11T01:53:04.996Z,15.10
2022-08-11T01:55:39.258Z,15.00
2022-08-11T01:58:18.071Z,15.00
2022-08-11T02:00:56.594Z,15.10
2022-08-11T02:03:37.669Z,15.10
2022-08-11T02:06:28.456Z,15.20
2022-08-11T02:09:04.351Z,15.10
2022-08-11T02:11:37.250Z,15.00
2022-08-11T02:14:27.800Z,14.90
2022-08-11T02:17:14.680Z,14.90
2022-08-11T02:20:10.277Z,14.90
2022-08-11T02:23:08.301Z,15.00
2022-08-11T02:25:39.856Z,15.00
2022-08-11T02:28:19.050Z,15.10
2022-08-11T02:32:04.882Z,15.00
2022-08-11T02:34:16.067Z,14.90
2022-08-11T02:36:50.308Z,14.80
2022-08-11T02:39:22.725Z,14.70
2022-08-11T02:42:32.862Z,14.80
2022-08-11T02:45:32.302Z,14.70
2022-08-11T02:48:27.514Z,14.60
2022-08-11T02:51:11.690Z,14.60
2022-08-11T02:53:54.465Z,14.50
2022-08-11T02:56:38.738Z,14.50
2022-08-11T02:59:30.407Z,14.60
2022-08-11T03:02:05.291Z,14.60
2022-08-11T03:04:45.042Z,14.70
2022-08-11T03:07:28.989Z,14.60
2022-08-11T03:10:07.042Z,14.70
2022-08-11T03:13:04.429Z,14.70
2022-08-11T03:15:59.865Z,14.60
2022-08-11T03:18:34.210Z,14.60
2022-08-11T03:21:11.348Z,14.60
2022-08-11T03:23:49.690Z,14.60
2022-08-11T03:26:27.039Z,14.50
2022-08-11T03:29:07.771Z,14.50
2022-08-11T03:31:42.660Z,14.70
2022-08-11T03:34:17.809Z,14.70
2022-08-11T03:37:17.844Z,14.80
2022-08-11T03:39:59.620Z,14.90
2022-08-11T03:42:37.373Z,14.90
2022-08-11T03:45:21.414Z,14.90
2022-08-11T03:48:15.390Z,14.40
2022-08-11T03:50:56.363Z,14.10
2022-08-11T03:53:45.910Z,14.30
2022-08-11T03:57:18.042Z,14.70
2022-08-11T04:00:24.803Z,14.80
2022-08-11T04:03:30.991Z,14.50
2022-08-11T04:06:51.257Z,14.60
2022-08-11T04:09:55.780Z,14.60
2022-08-11T04:13:10.889Z,14.90
2022-08-11T04:16:11.928Z,15.10
2022-08-11T04:19:17.806Z,15.30
2022-08-11T04:22:14.654Z,15.40
2022-08-11T04:25:22.458Z,15.40
2022-08-11T04:28:47.944Z,15.30
2022-08-11T04:31:51.132Z,15.00
2022-08-11T04:34:37.532Z,14.90
2022-08-11T04:37:37.124Z,14.80
2022-08-11T04:40:41.099Z,14.90
2022-08-11T04:44:05.692Z,15.10
2022-08-11T04:47:09.767Z,15.10
2022-08-11T04:50:25.905Z,15.00
2022-08-11T04:53:48.241Z,15.10
2022-08-11T04:56:41.877Z,15.00
2022-08-11T04:59:43.090Z,15.10
2022-08-11T05:02:59.951Z,15.20
2022-08-11T05:05:54.637Z,15.30
2022-08-11T05:08:53.724Z,15.50
2022-08-11T05:11:40.198Z,15.70
2022-08-11T05:14:51.763Z,15.80
2022-08-11T05:17:55.621Z,15.80
2022-08-11T05:20:44.070Z,15.80
2022-08-11T05:23:31.653Z,15.90
2022-08-11T05:26:47.207Z,15.90
2022-08-11T05:29:46.077Z,16.10
2022-08-11T05:32:35.861Z,16.20
2022-08-11T05:35:08.674Z,16.30
2022-08-11T05:37:57.234Z,16.40
2022-08-11T05:40:43.588Z,16.40
2022-08-11T05:43:37.693Z,16.60
2022-08-11T05:46:45.291Z,16.70
2022-08-11T05:49:31.796Z,16.80
2022-08-11T05:52:21.548Z,16.90
2022-08-11T05:55:21.402Z,17.00
2022-08-11T05:57:51.854Z,17.10
2022-08-11T06:00:20.967Z,17.20
2022-08-11T06:02:55.359Z,17.30
2022-08-11T06:05:25.205Z,17.40
2022-08-11T06:07:57.553Z,17.50
2022-08-11T06:10:33.319Z,17.60
2022-08-11T06:13:02.171Z,17.70
2022-08-11T06:15:33.076Z,17.70
2022-08-11T06:18:02.932Z,17.80
2022-08-11T06:20:37.594Z,17.80
2022-08-11T06:23:10.080Z,17.90
2022-08-11T06:25:39.097Z,18.00
2022-08-11T06:28:08.719Z,18.10
2022-08-11T06:30:40.795Z,18.20
2022-08-11T06:33:11.560Z,18.30
2022-08-11T06:36:19.428Z,18.40
2022-08-11T06:39:01.033Z,18.40
2022-08-11T06:41:37.261Z,18.60
2022-08-11T06:44:17.020Z,18.60
2022-08-11T06:46:48.632Z,18.70
2022-08-11T06:49:36.424Z,18.80
2022-08-11T06:52:07.032Z,18.80
2022-08-11T06:55:06.654Z,18.90
2022-08-11T06:57:55.028Z,19.10
2022-08-11T07:00:29.687Z,19.20
2022-08-11T07:03:02.204Z,19.20
2022-08-11T07:05:43.712Z,19.40
2022-08-11T07:09:09.376Z,19.60
2022-08-11T07:12:21.119Z,19.80
2022-08-11T07:15:11.199Z,19.80
2022-08-11T07:17:49.955Z,19.90
2022-08-11T07:20:36.635Z,20.10
2022-08-11T07:23:22.827Z,20.10
2022-08-11T07:26:12.527Z,20.10
2022-08-11T07:28:59.583Z,20.10
2022-08-11T07:31:40.745Z,20.30
2022-08-11T07:34:20.221Z,20.40
2022-08-11T07:36:52.472Z,20.50
2022-08-11T07:39:23.114Z,20.60
2022-08-11T07:41:53.063Z,20.70
2022-08-11T07:44:29.340Z,20.80
2022-08-11T07:47:18.986Z,20.80
2022-08-11T07:50:06.754Z,21.00
2022-08-11T07:52:38.387Z,21.10
2022-08-11T07:55:10.295Z,21.10
2022-08-11T07:58:15.112Z,21.20
2022-08-11T08:01:10.484Z,21.10
2022-08-11T08:04:09.341Z,21.30
2022-08-11T08:06:56.383Z,21.30
2022-08-11T08:09:43.347Z,21.50
2022-08-11T08:12:30.633Z,21.80
2022-08-11T08:15:16.563Z,21.90
2022-08-11T08:18:20.603Z,22.10
2022-08-11T08:20:50.968Z,21.90
2022-08-11T08:23:33.301Z,22.10
2022-08-11T08:26:04.477Z,22.30
2022-08-11T08:28:33.796Z,22.20
2022-08-11T08:31:01.693Z,22.20
2022-08-11T08:33:33.077Z,22.40
2022-08-11T08:36:12.796Z,22.40
2022-08-11T08:38:42.666Z,22.40
2022-08-11T08:41:13.253Z,22.50
2022-08-11T08:43:49.358Z,22.40
2022-08-11T08:46:23.466Z,22.60
2022-08-11T08:48:53.747Z,22.60
2022-08-11T08:52:01.691Z,22.70
2022-08-11T08:54:31.566Z,22.70
2022-08-11T08:57:04.981Z,22.90
2022-08-11T08:59:47.682Z,22.90
2022-08-11T09:02:22.087Z,22.80
2022-08-11T09:05:05.366Z,23.00
2022-08-11T09:07:39.078Z,22.90
2022-08-11T09:10:09.992Z,23.20
2022-08-11T09:12:41.365Z,23.50
2022-08-11T09:15:11.861Z,23.80
2022-08-11T09:17:42.373Z,23.70
2022-08-11T09:20:15.931Z,23.60
2022-08-11T09:24:02.131Z,23.70
2022-08-11T09:26:12.061Z,23.70
2022-08-11T09:28:40.632Z,23.60
2022-08-11T09:31:10.925Z,23.70
2022-08-11T09:33:39.599Z,23.50
2022-08-11T09:36:31.544Z,23.50
2022-08-11T09:39:18.752Z,23.50
2022-08-11T09:42:01.459Z,23.50
2022-08-11T09:44:48.796Z,23.70
2022-08-11T09:47:24.393Z,23.70
2022-08-11T09:49:56.252Z,23.70
2022-08-11T09:52:26.748Z,23.90
2022-08-11T09:54:56.236Z,24.10
2022-08-11T09:57:42.608Z,24.20
2022-08-11T10:00:15.159Z,23.90
2022-08-11T10:02:46.228Z,23.90
2022-08-11T10:05:35.742Z,23.90
2022-08-11T10:08:06.351Z,23.90
2022-08-11T10:10:38.602Z,24.00
2022-08-11T10:14:29.346Z,24.30
2022-08-11T10:16:16.397Z,24.50
2022-08-11T10:18:52.973Z,24.70
2022-08-11T10:21:38.993Z,24.80
2022-08-11T10:24:28.402Z,24.60
2022-08-11T10:27:00.257Z,24.20
2022-08-11T10:29:49.634Z,24.10
2022-08-11T10:32:57.931Z,23.90
2022-08-11T10:35:28.440Z,24.00
2022-08-11T10:38:08.948Z,24.60
2022-08-11T10:40:41.731Z,24.60
2022-08-11T10:43:14.212Z,24.70
2022-08-11T10:46:04.945Z,24.70
2022-08-11T10:48:38.130Z,25.00
2022-08-11T10:51:50.523Z,24.90
2022-08-11T10:54:24.695Z,24.60
2022-08-11T10:57:12.738Z,24.40
2022-08-11T10:59:42.788Z,24.40
2022-08-11T11:02:15.257Z,24.60
2022-08-11T11:05:00.234Z,24.80
2022-08-11T11:07:42.847Z,24.90
2022-08-11T11:10:12.733Z,24.70
2022-08-11T11:13:04.199Z,24.50
2022-08-11T11:15:52.064Z,24.50
2022-08-11T11:18:23.739Z,24.70
2022-08-11T11:20:57.727Z,24.70
2022-08-11T11:23:30.329Z,24.80
2022-08-11T11:26:11.000Z,24.70
2022-08-11T11:28:53.887Z,24.90
2022-08-11T11:31:35.077Z,25.20
2022-08-11T11:34:20.124Z,25.20
2022-08-11T11:36:50.533Z,25.20
2022-08-11T11:39:21.593Z,25.40
2022-08-11T11:41:51.186Z,25.30
2022-08-11T11:44:22.722Z,25.30
2022-08-11T11:46:51.575Z,25.10
2022-08-11T11:51:58.258Z,25.20
2022-08-11T11:54:28.753Z,25.20
2022-08-11T11:56:58.851Z,25.20
2022-08-11T11:59:47.467Z,25.50
2022-08-11T12:02:17.176Z,25.50
2022-08-11T12:04:47.868Z,25.40
2022-08-11T12:07:34.725Z,25.40
2022-08-11T12:10:03.759Z,25.20
2022-08-11T12:12:51.065Z,24.70
2022-08-11T12:16:03.657Z,24.50
2022-08-11T12:18:12.403Z,24.50
2022-08-11T12:20:40.776Z,24.50
2022-08-11T12:23:27.262Z,24.30
2022-08-11T12:26:28.698Z,24.30
2022-08-11T12:28:58.286Z,24.70
2022-08-11T12:31:29.699Z,25.00
2022-08-11T12:34:02.885Z,25.50
2022-08-11T12:36:34.490Z,26.10
2022-08-11T12:39:11.416Z,26.40
2022-08-11T12:42:10.188Z,26.40
2022-08-11T12:45:01.383Z,26.70
2022-08-11T12:48:40.124Z,26.90
2022-08-11T12:50:59.311Z,27.30
2022-08-11T12:53:30.761Z,27.20
2022-08-11T12:56:21.874Z,27.90
2022-08-11T12:58:52.596Z,28.20
2022-08-11T13:01:39.299Z,27.90
2022-08-11T13:04:26.689Z,28.10
2022-08-11T13:06:55.220Z,28.50
2022-08-11T13:09:24.161Z,28.40
2022-08-11T13:12:09.798Z,29.00
2022-08-11T13:14:38.023Z,28.60
2022-08-11T13:17:43.445Z,28.20
2022-08-11T13:20:15.430Z,28.50
2022-08-11T13:22:46.107Z,28.60
2022-08-11T13:25:16.264Z,28.10
2022-08-11T13:27:45.644Z,27.00
2022-08-11T13:30:34.454Z,26.80
2022-08-11T13:33:07.548Z,26.20
2022-08-11T13:35:37.434Z,25.90
2022-08-11T13:38:19.416Z,25.80
2022-08-11T13:40:55.765Z,25.90
2022-08-11T13:43:25.192Z,25.90
2022-08-11T13:46:14.514Z,25.70
2022-08-11T13:48:43.299Z,25.80
2022-08-11T13:51:37.412Z,25.80
2022-08-11T13:54:07.905Z,26.30
2022-08-11T13:56:39.792Z,27.40
2022-08-11T13:59:09.326Z,28.20
2022-08-11T14:02:21.222Z,28.80
2022-08-11T14:04:34.461Z,27.60
2022-08-11T14:07:09.112Z,27.00
2022-08-11T14:09:44.383Z,26.50
2022-08-11T14:12:34.512Z,26.20
2022-08-11T14:15:08.720Z,26.00
2022-08-11T14:17:48.548Z,26.30
2022-08-11T14:20:39.131Z,26.30
2022-08-11T14:23:12.313Z,26.40
2022-08-11T14:26:03.786Z,26.60
2022-08-11T14:28:41.641Z,26.80
2022-08-11T14:31:15.632Z,28.30
2022-08-11T14:34:01.113Z,28.80
2022-08-11T14:36:32.687Z,29.40
2022-08-11T14:39:04.976Z,29.20
2022-08-11T14:42:10.178Z,28.20
2022-08-11T14:44:58.251Z,28.70
2022-08-11T14:47:28.187Z,28.30
2022-08-11T14:50:09.773Z,28.00
2022-08-11T14:52:44.953Z,27.90
2022-08-11T14:55:32.677Z,27.40
2022-08-11T14:58:02.262Z,27.60
2022-08-11T15:00:31.640Z,27.50
2022-08-11T15:03:13.251Z,27.00
2022-08-11T15:05:56.107Z,27.00
2022-08-11T15:08:42.373Z,27.00
2022-08-11T15:11:27.274Z,26.90
2022-08-11T15:13:57.190Z,27.10
2022-08-11T15:16:44.506Z,26.70
2022-08-11T15:19:14.018Z,26.40
2022-08-11T15:21:59.913Z,26.30
2022-08-11T15:24:30.639Z,26.30
2022-08-11T15:27:19.829Z,26.40
2022-08-11T15:30:07.428Z,26.20
2022-08-11T15:32:56.948Z,25.80
2022-08-11T15:35:49.329Z,25.80
2022-08-11T15:38:21.161Z,25.80
2022-08-11T15:41:08.126Z,26.00
2022-08-11T15:43:59.729Z,26.00
2022-08-11T15:46:42.184Z,26.00
2022-08-11T15:49:13.464Z,26.10
2022-08-11T15:52:00.360Z,26.00
2022-08-11T15:54:33.504Z,25.50
2022-08-11T15:57:03.348Z,24.10
2022-08-11T15:59:51.394Z,24.00
2022-08-11T16:02:51.926Z,25.50
2022-08-11T16:05:45.349Z,26.30
2022-08-11T16:08:09.161Z,25.80
2022-08-11T16:10:42.766Z,25.20
2022-08-11T16:13:33.617Z,24.60
2022-08-11T16:16:18.755Z,24.50
2022-08-11T16:18:52.542Z,24.30
2022-08-11T16:21:33.753Z,24.60
2022-08-11T16:24:07.001Z,24.70
2022-08-11T16:27:10.019Z,25.40
2022-08-11T16:29:31.763Z,25.80
2022-08-11T16:32:18.759Z,25.70
2022-08-11T16:35:07.879Z,26.10
2022-08-11T16:37:55.360Z,26.10
2022-08-11T16:40:24.784Z,24.10
2022-08-11T16:43:11.764Z,23.90
2022-08-11T16:45:59.885Z,23.40
2022-08-11T16:48:36.875Z,23.20
2022-08-11T16:51:06.791Z,23.00
2022-08-11T16:53:59.803Z,23.10
2022-08-11T16:56:29.217Z,22.90
2022-08-11T16:59:17.330Z,23.00
2022-08-11T17:01:54.390Z,23.20
2022-08-11T17:04:48.255Z,23.80
2022-08-11T17:07:40.480Z,24.20
2022-08-11T17:10:51.202Z,24.90
2022-08-11T17:13:27.018Z,25.10
2022-08-11T17:16:11.774Z,25.50
2022-08-11T17:18:45.825Z,25.30
2022-08-11T17:21:18.582Z,25.30
2022-08-11T17:23:50.319Z,25.00
2022-08-11T17:26:21.468Z,25.20
2022-08-11T17:28:52.679Z,24.90
2022-08-11T17:31:40.278Z,24.60
2022-08-11T17:34:26.828Z,24.50
2022-08-11T17:36:57.274Z,24.20
2022-08-11T17:39:29.750Z,24.00
2022-08-11T17:42:16.269Z,23.70
2022-08-11T17:45:02.576Z,23.40
2022-08-11T17:47:48.944Z,23.40
2022-08-11T17:50:18.485Z,23.40
2022-08-11T17:53:06.420Z,23.00
2022-08-11T17:55:58.132Z,22.50
2022-08-11T17:58:45.242Z,22.50
2022-08-11T18:01:15.773Z,22.50
2022-08-11T18:03:53.060Z,22.30
2022-08-11T18:06:33.922Z,22.20
2022-08-11T18:09:26.426Z,22.00
2022-08-11T18:12:13.326Z,21.90
2022-08-11T18:15:04.162Z,21.60
2022-08-11T18:17:50.700Z,21.40
2022-08-11T18:20:37.283Z,21.30
2022-08-11T18:23:40.737Z,21.30
2022-08-11T18:26:38.250Z,21.10
2022-08-11T18:29:26.191Z,21.10
2022-08-11T18:32:22.027Z,21.00
2022-08-11T18:35:10.773Z,20.90
2022-08-11T18:38:02.201Z,20.80
2022-08-11T18:40:50.065Z,20.60
2022-08-11T18:43:39.929Z,20.60
2022-08-11T18:46:28.596Z,20.60
2022-08-11T18:49:21.327Z,20.50
2022-08-11T18:52:10.952Z,20.50
2022-08-11T18:54:58.548Z,20.50
2022-08-11T18:57:49.920Z,20.40
2022-08-11T19:00:42.783Z,20.30
2022-08-11T19:03:31.320Z,20.30
2022-08-11T19:06:38.529Z,20.30
2022-08-11T19:09:30.849Z,20.30
2022-08-11T19:12:18.016Z,20.20
2022-08-11T19:15:04.953Z,20.20
2022-08-11T19:17:54.661Z,20.10
2022-08-11T19:20:44.746Z,20.10
2022-08-11T19:23:32.087Z,20.10
2022-08-11T19:26:19.142Z,20.00
2022-08-11T19:29:06.914Z,20.10
2022-08-11T19:31:53.806Z,20.10
2022-08-11T19:34:46.100Z,20.10
2022-08-11T19:37:32.174Z,20.10
2022-08-11T19:40:22.229Z,20.10
2022-08-11T19:43:14.874Z,20.10
2022-08-11T19:46:11.020Z,20.00
2022-08-11T19:48:58.201Z,20.10
2022-08-11T19:51:47.930Z,20.10
2022-08-11T19:54:43.507Z,19.80
2022-08-11T19:57:31.680Z,19.80
2022-08-11T20:00:20.073Z,19.30
2022-08-11T20:03:09.441Z,19.10
2022-08-11T20:05:59.888Z,19.00
2022-08-11T20:08:48.449Z,19.00
2022-08-11T20:11:36.586Z,18.90
2022-08-11T20:14:24.953Z,18.90
2022-08-11T20:17:12.012Z,18.70
2022-08-11T20:22:49.135Z,18.60
2022-08-11T20:25:37.909Z,18.60
2022-08-11T20:28:25.026Z,18.70
2022-08-11T20:31:12.309Z,18.60
2022-08-11T20:33:59.222Z,18.50
2022-08-11T20:36:48.745Z,18.60
2022-08-11T20:39:41.192Z,18.70
2022-08-11T20:42:30.669Z,18.60
2022-08-11T20:45:23.575Z,18.60
2022-08-11T20:48:14.730Z,18.70
2022-08-11T20:51:06.139Z,18.50
2022-08-11T20:53:53.925Z,18.50
2022-08-11T20:56:41.421Z,18.30
2022-08-11T20:59:34.572Z,18.40
2022-08-11T21:02:35.938Z,18.30
2022-08-11T21:06:08.249Z,18.30
2022-08-11T21:08:29.174Z,18.20
2022-08-11T21:11:15.406Z,18.20
2022-08-11T21:14:15.360Z,18.10
2022-08-11T21:17:04.522Z,18.00
2022-08-11T21:20:15.591Z,18.00
2022-08-11T21:23:13.104Z,18.00
2022-08-11T21:26:13.368Z,18.10
2022-08-11T21:29:01.122Z,18.30
2022-08-11T21:31:49.716Z,18.30
2022-08-11T21:34:39.661Z,18.50
2022-08-11T21:37:27.949Z,18.50
2022-08-11T21:40:17.488Z,18.40
2022-08-11T21:43:05.834Z,18.60
2022-08-11T21:45:55.674Z,18.60
2022-08-11T21:48:44.464Z,18.50
2022-08-11T21:51:31.233Z,18.30
2022-08-11T21:54:18.840Z,18.40
2022-08-11T21:57:05.430Z,18.40
2022-08-11T22:00:00.505Z,18.50
2022-08-11T22:02:48.989Z,18.50
2022-08-11T22:05:39.668Z,18.50
2022-08-11T22:08:27.838Z,18.50
2022-08-11T22:11:13.656Z,18.40
2022-08-11T22:14:01.219Z,18.30
2022-08-11T22:16:53.907Z,18.30
2022-08-11T22:19:40.930Z,18.30
2022-08-11T22:22:29.353Z,18.30
2022-08-11T22:25:18.631Z,18.30
2022-08-11T22:28:04.809Z,18.40
2022-08-11T22:30:50.700Z,18.50
2022-08-11T22:33:42.084Z,18.50
2022-08-11T22:36:44.444Z,18.50
2022-08-11T22:39:31.426Z,18.60
2022-08-11T22:42:33.076Z,18.50
2022-08-11T22:45:19.932Z,18.60
2022-08-11T22:48:07.595Z,18.60
2022-08-11T22:50:54.866Z,18.60
2022-08-11T22:53:55.220Z,18.60
2022-08-11T22:56:46.720Z,18.60
2022-08-11T22:59:35.898Z,18.60
2022-08-11T23:02:22.492Z,18.60
2022-08-11T23:05:08.984Z,18.60
2022-08-11T23:07:55.971Z,18.60
2022-08-11T23:10:43.045Z,18.60
2022-08-11T23:13:30.311Z,18.60
2022-08-11T23:16:18.124Z,18.50
2022-08-11T23:19:05.064Z,18.60
2022-08-11T23:21:52.430Z,18.60
2022-08-11T23:24:39.251Z,18.50
2022-08-11T23:27:26.967Z,18.60
2022-08-11T23:30:16.968Z,18.60
2022-08-11T23:33:09.331Z,18.70
2022-08-11T23:36:02.297Z,18.70
2022-08-11T23:38:50.912Z,18.70
2022-08-11T23:41:36.469Z,18.70
2022-08-11T23:44:23.750Z,18.80
2022-08-11T23:47:12.561Z,18.80
2022-08-11T23:50:00.306Z,18.80
2022-08-11T23:52:47.902Z,18.80
2022-08-11T23:55:33.819Z,18.80
2022-08-11T23:58:19.985Z,18.80
